Anamur, Turkey
Current Conditions -  °F | °C
As of 5:20 AM on Thursday 18 Dec 2014 (Local Time) from LCEN Reporting Station
Broken Clouds Broken Clouds  
Wind Chill: 50°   Ceiling: 16000
Heat Index: 50°   Visibility: 5mi
Dew Point: 48°   Wind: 8mph
Humidity: 94%   Direction: 220°SW
Pressure: 30.09"   Gusts: NA
Location:  36.08°N, 32.84°E
Report Text: LCEN 180220Z 22007KT 8000 FEW020 BKN160 BKN200 10/09 Q1019 NOSIG
Loading
Personal Weather Stations






























Interactive Weather Map New forecast layout! Learn more

10-Day Weather Forecast

Advertisements
Track Severe Weather on mobile